sensor_id;sensor_type;location;lat;lon;timestamp;P1;durP1;ratioP1;P2;durP2;ratioP2
31692;SDS011;37436;53.230;6.614;2023-02-22T00:02:00;83.28;;;25.30;;
31692;SDS011;37436;53.230;6.614;2023-02-22T00:04:40;72.18;;;22.63;;
31692;SDS011;37436;53.230;6.614;2023-02-22T00:07:06;87.25;;;25.27;;
31692;SDS011;37436;53.230;6.614;2023-02-22T00:09:33;88.00;;;26.45;;
31692;SDS011;37436;53.230;6.614;2023-02-22T00:12:01;90.30;;;26.52;;
31692;SDS011;37436;53.230;6.614;2023-02-22T00:14:27;93.53;;;24.00;;
31692;SDS011;37436;53.230;6.614;2023-02-22T00:16:53;93.43;;;26.95;;
31692;SDS011;37436;53.230;6.614;2023-02-22T00:19:25;85.38;;;23.23;;
31692;SDS011;37436;53.230;6.614;2023-02-22T00:21:57;79.57;;;24.13;;
31692;SDS011;37436;53.230;6.614;2023-02-22T00:24:31;93.53;;;24.35;;
31692;SDS011;37436;53.230;6.614;2023-02-22T00:26:57;69.47;;;21.95;;
31692;SDS011;37436;53.230;6.614;2023-02-22T00:29:24;75.05;;;22.40;;
31692;SDS011;37436;53.230;6.614;2023-02-22T00:31:52;80.05;;;23.25;;
31692;SDS011;37436;53.230;6.614;2023-02-22T00:34:18;89.38;;;23.50;;
31692;SDS011;37436;53.230;6.614;2023-02-22T00:36:45;86.25;;;24.33;;
31692;SDS011;37436;53.230;6.614;2023-02-22T00:39:15;80.80;;;22.83;;
31692;SDS011;37436;53.230;6.614;2023-02-22T00:41:41;81.00;;;21.98;;
31692;SDS011;37436;53.230;6.614;2023-02-22T00:44:07;65.85;;;19.27;;
31692;SDS011;37436;53.230;6.614;2023-02-22T00:46:33;68.32;;;20.92;;
31692;SDS011;37436;53.230;6.614;2023-02-22T00:49:02;68.25;;;20.80;;
31692;SDS011;37436;53.230;6.614;2023-02-22T00:51:29;76.30;;;22.73;;
31692;SDS011;37436;53.230;6.614;2023-02-22T00:53:58;79.07;;;23.17;;
31692;SDS011;37436;53.230;6.614;2023-02-22T00:56:24;76.63;;;22.55;;
31692;SDS011;37436;53.230;6.614;2023-02-22T00:59:08;81.43;;;21.38;;
31692;SDS011;37436;53.230;6.614;2023-02-22T01:01:45;75.00;;;23.52;;
31692;SDS011;37436;53.230;6.614;2023-02-22T01:04:12;74.90;;;20.73;;
31692;SDS011;37436;53.230;6.614;2023-02-22T01:06:38;68.68;;;21.30;;
31692;SDS011;37436;53.230;6.614;2023-02-22T01:09:04;67.20;;;21.17;;
31692;SDS011;37436;53.230;6.614;2023-02-22T01:11:33;72.57;;;19.08;;
31692;SDS011;37436;53.230;6.614;2023-02-22T01:13:59;62.85;;;20.15;;
31692;SDS011;37436;53.230;6.614;2023-02-22T01:16:25;76.22;;;22.73;;
31692;SDS011;37436;53.230;6.614;2023-02-22T01:18:59;59.75;;;20.30;;
31692;SDS011;37436;53.230;6.614;2023-02-22T01:21:25;59.67;;;20.80;;
31692;SDS011;37436;53.230;6.614;2023-02-22T01:23:52;68.35;;;23.30;;
31692;SDS011;37436;53.230;6.614;2023-02-22T01:26:19;72.68;;;23.50;;
31692;SDS011;37436;53.230;6.614;2023-02-22T01:28:48;68.28;;;22.02;;
31692;SDS011;37436;53.230;6.614;2023-02-22T01:31:14;64.70;;;20.67;;
31692;SDS011;37436;53.230;6.614;2023-02-22T01:33:40;55.33;;;17.65;;
31692;SDS011;37436;53.230;6.614;2023-02-22T01:36:06;56.33;;;17.80;;
31692;SDS011;37436;53.230;6.614;2023-02-22T01:38:35;63.72;;;18.35;;
31692;SDS011;37436;53.230;6.614;2023-02-22T01:41:02;64.57;;;18.83;;
31692;SDS011;37436;53.230;6.614;2023-02-22T01:43:30;58.20;;;18.77;;
31692;SDS011;37436;53.230;6.614;2023-02-22T01:46:01;57.00;;;17.88;;
31692;SDS011;37436;53.230;6.614;2023-02-22T01:48:29;56.28;;;18.98;;
31692;SDS011;37436;53.230;6.614;2023-02-22T01:51:01;53.45;;;17.85;;
31692;SDS011;37436;53.230;6.614;2023-02-22T01:53:36;58.92;;;16.33;;
31692;SDS011;37436;53.230;6.614;2023-02-22T01:56:03;53.63;;;16.83;;
31692;SDS011;37436;53.230;6.614;2023-02-22T01:58:32;57.35;;;17.48;;
31692;SDS011;37436;53.230;6.614;2023-02-22T02:01:01;54.35;;;17.95;;
31692;SDS011;37436;53.230;6.614;2023-02-22T02:03:31;58.20;;;18.25;;
31692;SDS011;37436;53.230;6.614;2023-02-22T02:05:59;53.15;;;17.55;;
31692;SDS011;37436;53.230;6.614;2023-02-22T02:08:33;54.85;;;15.80;;
31692;SDS011;37436;53.230;6.614;2023-02-22T02:11:01;53.80;;;16.65;;
31692;SDS011;37436;53.230;6.614;2023-02-22T02:13:27;49.78;;;15.90;;
31692;SDS011;37436;53.230;6.614;2023-02-22T02:15:56;36.42;;;11.38;;
31692;SDS011;37436;53.230;6.614;2023-02-22T02:18:25;37.97;;;11.75;;
31692;SDS011;37436;53.230;6.614;2023-02-22T02:34:12;35.55;;;12.73;;
31692;SDS011;37436;53.230;6.614;2023-02-22T02:39:22;41.72;;;14.50;;
31692;SDS011;37436;53.230;6.614;2023-02-22T02:41:54;40.88;;;15.32;;
31692;SDS011;37436;53.230;6.614;2023-02-22T02:44:23;40.95;;;15.20;;
31692;SDS011;37436;53.230;6.614;2023-02-22T02:46:54;41.10;;;14.70;;
31692;SDS011;37436;53.230;6.614;2023-02-22T02:49:23;42.22;;;15.02;;
31692;SDS011;37436;53.230;6.614;2023-02-22T02:51:51;44.92;;;15.85;;
31692;SDS011;37436;53.230;6.614;2023-02-22T02:54:18;43.67;;;13.98;;
31692;SDS011;37436;53.230;6.614;2023-02-22T02:56:45;43.55;;;15.68;;
31692;SDS011;37436;53.230;6.614;2023-02-22T02:59:25;53.53;;;15.77;;
31692;SDS011;37436;53.230;6.614;2023-02-22T03:04:31;51.95;;;15.52;;
31692;SDS011;37436;53.230;6.614;2023-02-22T03:17:28;45.92;;;15.50;;
31692;SDS011;37436;53.230;6.614;2023-02-22T03:20:19;43.55;;;14.90;;
31692;SDS011;37436;53.230;6.614;2023-02-22T03:22:54;44.15;;;15.55;;
31692;SDS011;37436;53.230;6.614;2023-02-22T03:25:31;46.30;;;15.57;;
31692;SDS011;37436;53.230;6.614;2023-02-22T03:28:06;42.85;;;15.07;;
31692;SDS011;37436;53.230;6.614;2023-02-22T03:30:44;41.55;;;15.00;;
31692;SDS011;37436;53.230;6.614;2023-02-22T03:33:19;47.97;;;16.67;;
31692;SDS011;37436;53.230;6.614;2023-02-22T03:36:08;44.35;;;16.15;;
31692;SDS011;37436;53.230;6.614;2023-02-22T03:38:36;49.75;;;16.30;;
31692;SDS011;37436;53.230;6.614;2023-02-22T03:41:07;45.70;;;16.05;;
31692;SDS011;37436;53.230;6.614;2023-02-22T03:43:39;51.33;;;17.38;;
31692;SDS011;37436;53.230;6.614;2023-02-22T03:46:07;45.80;;;16.23;;
31692;SDS011;37436;53.230;6.614;2023-02-22T03:51:25;53.95;;;18.80;;
31692;SDS011;37436;53.230;6.614;2023-02-22T03:53:54;58.15;;;19.08;;
31692;SDS011;37436;53.230;6.614;2023-02-22T03:56:29;59.90;;;20.05;;
31692;SDS011;37436;53.230;6.614;2023-02-22T03:59:08;49.85;;;18.67;;
31692;SDS011;37436;53.230;6.614;2023-02-22T04:01:40;52.72;;;18.23;;
31692;SDS011;37436;53.230;6.614;2023-02-22T04:04:09;51.60;;;19.73;;
31692;SDS011;37436;53.230;6.614;2023-02-22T04:06:35;53.47;;;18.98;;
31692;SDS011;37436;53.230;6.614;2023-02-22T04:09:01;50.28;;;18.45;;
31692;SDS011;37436;53.230;6.614;2023-02-22T04:11:32;56.08;;;18.83;;
31692;SDS011;37436;53.230;6.614;2023-02-22T04:14:01;57.83;;;20.95;;
31692;SDS011;37436;53.230;6.614;2023-02-22T04:16:32;61.40;;;20.02;;
31692;SDS011;37436;53.230;6.614;2023-02-22T04:18:58;53.92;;;18.35;;
31692;SDS011;37436;53.230;6.614;2023-02-22T04:21:30;51.67;;;18.95;;
31692;SDS011;37436;53.230;6.614;2023-02-22T04:23:58;56.45;;;18.30;;
31692;SDS011;37436;53.230;6.614;2023-02-22T04:26:25;53.22;;;18.08;;
31692;SDS011;37436;53.230;6.614;2023-02-22T04:29:00;57.38;;;19.00;;
31692;SDS011;37436;53.230;6.614;2023-02-22T04:31:32;54.55;;;17.92;;
31692;SDS011;37436;53.230;6.614;2023-02-22T04:34:08;53.60;;;19.70;;
31692;SDS011;37436;53.230;6.614;2023-02-22T04:36:38;50.53;;;18.80;;
31692;SDS011;37436;53.230;6.614;2023-02-22T04:39:13;67.68;;;19.98;;
31692;SDS011;37436;53.230;6.614;2023-02-22T04:41:47;59.80;;;20.52;;
31692;SDS011;37436;53.230;6.614;2023-02-22T04:44:19;66.20;;;19.75;;
31692;SDS011;37436;53.230;6.614;2023-02-22T04:46:58;60.17;;;19.98;;
31692;SDS011;37436;53.230;6.614;2023-02-22T04:49:24;59.20;;;20.25;;
31692;SDS011;37436;53.230;6.614;2023-02-22T04:51:53;62.63;;;19.45;;
31692;SDS011;37436;53.230;6.614;2023-02-22T04:54:21;57.90;;;19.90;;
31692;SDS011;37436;53.230;6.614;2023-02-22T04:56:48;58.25;;;19.10;;
31692;SDS011;37436;53.230;6.614;2023-02-22T04:59:14;52.15;;;18.33;;
31692;SDS011;37436;53.230;6.614;2023-02-22T05:01:42;58.92;;;18.73;;
31692;SDS011;37436;53.230;6.614;2023-02-22T05:04:37;58.78;;;19.75;;
31692;SDS011;37436;53.230;6.614;2023-02-22T05:07:05;52.78;;;17.27;;
31692;SDS011;37436;53.230;6.614;2023-02-22T05:09:31;58.97;;;19.52;;
31692;SDS011;37436;53.230;6.614;2023-02-22T05:12:00;52.90;;;19.63;;
31692;SDS011;37436;53.230;6.614;2023-02-22T05:14:26;56.42;;;18.02;;
31692;SDS011;37436;53.230;6.614;2023-02-22T05:16:53;62.38;;;20.08;;
31692;SDS011;37436;53.230;6.614;2023-02-22T05:19:25;62.60;;;20.08;;
31692;SDS011;37436;53.230;6.614;2023-02-22T05:21:54;59.20;;;20.23;;
31692;SDS011;37436;53.230;6.614;2023-02-22T05:24:20;60.72;;;19.80;;
31692;SDS011;37436;53.230;6.614;2023-02-22T05:26:49;60.45;;;17.70;;
31692;SDS011;37436;53.230;6.614;2023-02-22T05:29:17;60.67;;;19.10;;
31692;SDS011;37436;53.230;6.614;2023-02-22T05:34:38;63.83;;;20.27;;
31692;SDS011;37436;53.230;6.614;2023-02-22T05:37:13;61.42;;;19.45;;
31692;SDS011;37436;53.230;6.614;2023-02-22T05:39:45;63.38;;;22.40;;
31692;SDS011;37436;53.230;6.614;2023-02-22T05:42:14;71.10;;;23.23;;
31692;SDS011;37436;53.230;6.614;2023-02-22T05:44:42;72.05;;;21.90;;
31692;SDS011;37436;53.230;6.614;2023-02-22T05:47:11;73.50;;;22.50;;
31692;SDS011;37436;53.230;6.614;2023-02-22T05:49:37;71.03;;;23.02;;
31692;SDS011;37436;53.230;6.614;2023-02-22T05:52:03;86.13;;;24.30;;
31692;SDS011;37436;53.230;6.614;2023-02-22T05:54:30;72.60;;;23.17;;
31692;SDS011;37436;53.230;6.614;2023-02-22T05:56:58;81.45;;;25.50;;
31692;SDS011;37436;53.230;6.614;2023-02-22T05:59:25;69.13;;;23.52;;
31692;SDS011;37436;53.230;6.614;2023-02-22T06:02:07;77.07;;;25.73;;
31692;SDS011;37436;53.230;6.614;2023-02-22T06:04:36;79.40;;;25.58;;
31692;SDS011;37436;53.230;6.614;2023-02-22T06:07:08;87.20;;;26.67;;
31692;SDS011;37436;53.230;6.614;2023-02-22T06:09:40;104.53;;;28.00;;
31692;SDS011;37436;53.230;6.614;2023-02-22T06:12:12;93.72;;;29.27;;
31692;SDS011;37436;53.230;6.614;2023-02-22T06:14:40;94.05;;;31.65;;
31692;SDS011;37436;53.230;6.614;2023-02-22T06:17:16;88.97;;;29.20;;
31692;SDS011;37436;53.230;6.614;2023-02-22T06:19:52;89.90;;;25.88;;
31692;SDS011;37436;53.230;6.614;2023-02-22T06:22:18;92.68;;;30.58;;
31692;SDS011;37436;53.230;6.614;2023-02-22T06:24:47;89.35;;;29.05;;
31692;SDS011;37436;53.230;6.614;2023-02-22T06:27:31;95.45;;;30.58;;
31692;SDS011;37436;53.230;6.614;2023-02-22T06:29:57;100.43;;;31.73;;
31692;SDS011;37436;53.230;6.614;2023-02-22T06:35:00;95.55;;;30.25;;
31692;SDS011;37436;53.230;6.614;2023-02-22T06:40:33;101.10;;;31.27;;
31692;SDS011;37436;53.230;6.614;2023-02-22T06:43:10;108.45;;;28.27;;
31692;SDS011;37436;53.230;6.614;2023-02-22T06:45:36;104.00;;;31.60;;
31692;SDS011;37436;53.230;6.614;2023-02-22T06:48:05;106.82;;;34.10;;
31692;SDS011;37436;53.230;6.614;2023-02-22T06:53:16;106.43;;;31.80;;
31692;SDS011;37436;53.230;6.614;2023-02-22T06:55:45;115.40;;;32.85;;
31692;SDS011;37436;53.230;6.614;2023-02-22T06:58:12;107.78;;;33.67;;
31692;SDS011;37436;53.230;6.614;2023-02-22T07:00:40;105.43;;;32.33;;
31692;SDS011;37436;53.230;6.614;2023-02-22T07:03:09;106.63;;;33.75;;
31692;SDS011;37436;53.230;6.614;2023-02-22T07:05:41;98.70;;;31.70;;
31692;SDS011;37436;53.230;6.614;2023-02-22T07:11:49;104.60;;;32.63;;
31692;SDS011;37436;53.230;6.614;2023-02-22T07:14:20;113.00;;;34.22;;
31692;SDS011;37436;53.230;6.614;2023-02-22T07:16:49;106.40;;;34.33;;
31692;SDS011;37436;53.230;6.614;2023-02-22T07:19:15;111.22;;;33.58;;
31692;SDS011;37436;53.230;6.614;2023-02-22T07:21:44;98.95;;;33.38;;
31692;SDS011;37436;53.230;6.614;2023-02-22T07:24:12;103.57;;;32.90;;
31692;SDS011;37436;53.230;6.614;2023-02-22T07:26:46;105.78;;;34.40;;
31692;SDS011;37436;53.230;6.614;2023-02-22T07:29:22;118.32;;;35.30;;
31692;SDS011;37436;53.230;6.614;2023-02-22T07:31:48;107.65;;;33.50;;
31692;SDS011;37436;53.230;6.614;2023-02-22T07:34:14;113.53;;;33.72;;
31692;SDS011;37436;53.230;6.614;2023-02-22T07:36:40;110.30;;;34.35;;
31692;SDS011;37436;53.230;6.614;2023-02-22T07:39:06;105.60;;;34.35;;
31692;SDS011;37436;53.230;6.614;2023-02-22T07:41:33;117.78;;;37.35;;
31692;SDS011;37436;53.230;6.614;2023-02-22T07:50:30;112.95;;;36.13;;
31692;SDS011;37436;53.230;6.614;2023-02-22T07:53:38;105.70;;;33.50;;
31692;SDS011;37436;53.230;6.614;2023-02-22T07:56:16;116.43;;;36.15;;
31692;SDS011;37436;53.230;6.614;2023-02-22T08:02:41;115.18;;;35.40;;
31692;SDS011;37436;53.230;6.614;2023-02-22T08:05:50;118.00;;;31.85;;
31692;SDS011;37436;53.230;6.614;2023-02-22T08:18:27;111.03;;;34.85;;
31692;SDS011;37436;53.230;6.614;2023-02-22T08:21:07;114.65;;;36.53;;
31692;SDS011;37436;53.230;6.614;2023-02-22T08:30:19;116.80;;;34.92;;
31692;SDS011;37436;53.230;6.614;2023-02-22T08:33:26;120.97;;;35.00;;
31692;SDS011;37436;53.230;6.614;2023-02-22T08:36:04;112.43;;;34.88;;
31692;SDS011;37436;53.230;6.614;2023-02-22T08:38:30;104.43;;;34.90;;
31692;SDS011;37436;53.230;6.614;2023-02-22T08:40:58;107.35;;;36.60;;
31692;SDS011;37436;53.230;6.614;2023-02-22T08:43:24;106.70;;;34.92;;
31692;SDS011;37436;53.230;6.614;2023-02-22T08:45:52;96.28;;;35.13;;
31692;SDS011;37436;53.230;6.614;2023-02-22T08:48:19;108.40;;;36.20;;
31692;SDS011;37436;53.230;6.614;2023-02-22T09:00:12;107.95;;;33.65;;
31692;SDS011;37436;53.230;6.614;2023-02-22T09:06:18;99.18;;;31.83;;
31692;SDS011;37436;53.230;6.614;2023-02-22T09:08:52;93.72;;;32.00;;
31692;SDS011;37436;53.230;6.614;2023-02-22T09:11:18;102.53;;;33.17;;
31692;SDS011;37436;53.230;6.614;2023-02-22T09:16:47;103.15;;;32.53;;
31692;SDS011;37436;53.230;6.614;2023-02-22T09:19:28;94.07;;;31.25;;
31692;SDS011;37436;53.230;6.614;2023-02-22T09:28:35;93.47;;;29.85;;
31692;SDS011;37436;53.230;6.614;2023-02-22T09:31:01;87.90;;;28.23;;
31692;SDS011;37436;53.230;6.614;2023-02-22T09:33:36;98.40;;;32.88;;
31692;SDS011;37436;53.230;6.614;2023-02-22T09:45:12;99.68;;;33.47;;
31692;SDS011;37436;53.230;6.614;2023-02-22T09:51:08;102.07;;;30.65;;
31692;SDS011;37436;53.230;6.614;2023-02-22T09:53:41;102.45;;;32.10;;
31692;SDS011;37436;53.230;6.614;2023-02-22T09:56:16;95.43;;;31.80;;
31692;SDS011;37436;53.230;6.614;2023-02-22T09:58:58;92.00;;;30.20;;
31692;SDS011;37436;53.230;6.614;2023-02-22T10:01:34;100.38;;;33.30;;
31692;SDS011;37436;53.230;6.614;2023-02-22T10:07:10;100.07;;;34.38;;
31692;SDS011;37436;53.230;6.614;2023-02-22T10:09:42;96.10;;;30.50;;
31692;SDS011;37436;53.230;6.614;2023-02-22T10:20:40;99.78;;;33.80;;
31692;SDS011;37436;53.230;6.614;2023-02-22T10:25:47;96.53;;;32.42;;
31692;SDS011;37436;53.230;6.614;2023-02-22T10:28:29;102.50;;;32.00;;
31692;SDS011;37436;53.230;6.614;2023-02-22T10:31:04;104.95;;;34.15;;
31692;SDS011;37436;53.230;6.614;2023-02-22T10:33:35;99.65;;;30.48;;
31692;SDS011;37436;53.230;6.614;2023-02-22T10:36:02;97.22;;;30.95;;
31692;SDS011;37436;53.230;6.614;2023-02-22T10:38:29;89.65;;;31.67;;
31692;SDS011;37436;53.230;6.614;2023-02-22T10:44:04;105.00;;;32.15;;
31692;SDS011;37436;53.230;6.614;2023-02-22T10:50:11;101.70;;;32.33;;
31692;SDS011;37436;53.230;6.614;2023-02-22T10:52:40;102.50;;;32.95;;
31692;SDS011;37436;53.230;6.614;2023-02-22T10:55:11;92.43;;;31.85;;
31692;SDS011;37436;53.230;6.614;2023-02-22T10:57:37;97.75;;;32.53;;
31692;SDS011;37436;53.230;6.614;2023-02-22T11:11:19;95.68;;;32.55;;
31692;SDS011;37436;53.230;6.614;2023-02-22T11:13:56;97.00;;;32.42;;
31692;SDS011;37436;53.230;6.614;2023-02-22T11:25:01;89.63;;;30.33;;
31692;SDS011;37436;53.230;6.614;2023-02-22T11:27:36;95.05;;;33.15;;
31692;SDS011;37436;53.230;6.614;2023-02-22T11:30:20;90.88;;;31.65;;
31692;SDS011;37436;53.230;6.614;2023-02-22T11:32:52;91.07;;;30.50;;
31692;SDS011;37436;53.230;6.614;2023-02-22T11:36:00;85.90;;;30.73;;
31692;SDS011;37436;53.230;6.614;2023-02-22T11:38:59;85.50;;;29.20;;
31692;SDS011;37436;53.230;6.614;2023-02-22T11:48:01;87.97;;;29.25;;
31692;SDS011;37436;53.230;6.614;2023-02-22T11:50:41;87.45;;;30.08;;
31692;SDS011;37436;53.230;6.614;2023-02-22T12:01:40;90.90;;;30.70;;
31692;SDS011;37436;53.230;6.614;2023-02-22T12:09:37;79.82;;;27.05;;
31692;SDS011;37436;53.230;6.614;2023-02-22T12:12:11;81.57;;;27.30;;
31692;SDS011;37436;53.230;6.614;2023-02-22T12:17:25;78.45;;;27.10;;
31692;SDS011;37436;53.230;6.614;2023-02-22T12:19:56;74.10;;;23.67;;
31692;SDS011;37436;53.230;6.614;2023-02-22T12:22:31;81.53;;;26.50;;
31692;SDS011;37436;53.230;6.614;2023-02-22T12:27:38;83.43;;;25.67;;
31692;SDS011;37436;53.230;6.614;2023-02-22T12:30:10;82.57;;;24.27;;
31692;SDS011;37436;53.230;6.614;2023-02-22T12:32:39;77.82;;;24.52;;
31692;SDS011;37436;53.230;6.614;2023-02-22T12:38:19;70.35;;;25.00;;
31692;SDS011;37436;53.230;6.614;2023-02-22T12:41:07;81.07;;;23.70;;
31692;SDS011;37436;53.230;6.614;2023-02-22T12:43:59;75.82;;;23.90;;
31692;SDS011;37436;53.230;6.614;2023-02-22T12:49:02;71.47;;;22.60;;
31692;SDS011;37436;53.230;6.614;2023-02-22T12:56:51;70.05;;;23.95;;
31692;SDS011;37436;53.230;6.614;2023-02-22T12:59:40;74.18;;;24.67;;
31692;SDS011;37436;53.230;6.614;2023-02-22T13:02:11;67.43;;;23.42;;
31692;SDS011;37436;53.230;6.614;2023-02-22T13:04:40;74.95;;;25.45;;
31692;SDS011;37436;53.230;6.614;2023-02-22T13:18:19;61.95;;;20.77;;
31692;SDS011;37436;53.230;6.614;2023-02-22T13:20:58;74.85;;;24.60;;
31692;SDS011;37436;53.230;6.614;2023-02-22T13:26:14;72.93;;;24.38;;
31692;SDS011;37436;53.230;6.614;2023-02-22T13:28:45;69.68;;;22.58;;
31692;SDS011;37436;53.230;6.614;2023-02-22T13:31:34;64.35;;;22.27;;
31692;SDS011;37436;53.230;6.614;2023-02-22T13:36:47;78.03;;;24.05;;
31692;SDS011;37436;53.230;6.614;2023-02-22T13:49:35;69.55;;;23.58;;
31692;SDS011;37436;53.230;6.614;2023-02-22T13:57:03;69.47;;;22.30;;
31692;SDS011;37436;53.230;6.614;2023-02-22T13:59:31;71.25;;;23.58;;
31692;SDS011;37436;53.230;6.614;2023-02-22T14:01:57;67.78;;;23.38;;
31692;SDS011;37436;53.230;6.614;2023-02-22T14:06:58;73.63;;;23.98;;
31692;SDS011;37436;53.230;6.614;2023-02-22T14:15:48;64.53;;;21.63;;
31692;SDS011;37436;53.230;6.614;2023-02-22T14:18:19;67.35;;;22.25;;
31692;SDS011;37436;53.230;6.614;2023-02-22T14:20:45;71.70;;;22.53;;
31692;SDS011;37436;53.230;6.614;2023-02-22T14:32:18;68.68;;;21.27;;
31692;SDS011;37436;53.230;6.614;2023-02-22T14:34:49;68.07;;;21.50;;
31692;SDS011;37436;53.230;6.614;2023-02-22T14:37:26;63.47;;;21.70;;
31692;SDS011;37436;53.230;6.614;2023-02-22T14:40:07;74.32;;;23.33;;
31692;SDS011;37436;53.230;6.614;2023-02-22T14:42:50;73.50;;;23.05;;
31692;SDS011;37436;53.230;6.614;2023-02-22T14:45:33;68.72;;;23.45;;
31692;SDS011;37436;53.230;6.614;2023-02-22T15:09:27;71.25;;;21.77;;
31692;SDS011;37436;53.230;6.614;2023-02-22T15:12:37;75.78;;;22.40;;
31692;SDS011;37436;53.230;6.614;2023-02-22T15:18:25;75.82;;;25.25;;
31692;SDS011;37436;53.230;6.614;2023-02-22T15:29:32;90.85;;;27.05;;
31692;SDS011;37436;53.230;6.614;2023-02-22T15:32:16;83.55;;;24.80;;
31692;SDS011;37436;53.230;6.614;2023-02-22T15:34:43;94.03;;;26.85;;
31692;SDS011;37436;53.230;6.614;2023-02-22T15:37:19;72.18;;;24.75;;
31692;SDS011;37436;53.230;6.614;2023-02-22T15:43:26;74.32;;;24.63;;
31692;SDS011;37436;53.230;6.614;2023-02-22T15:46:36;82.53;;;25.40;;
31692;SDS011;37436;53.230;6.614;2023-02-22T15:52:28;76.03;;;23.42;;
31692;SDS011;37436;53.230;6.614;2023-02-22T15:54:59;81.88;;;25.30;;
31692;SDS011;37436;53.230;6.614;2023-02-22T15:57:45;68.40;;;22.92;;
31692;SDS011;37436;53.230;6.614;2023-02-22T16:03:11;81.10;;;24.20;;
31692;SDS011;37436;53.230;6.614;2023-02-22T16:05:55;75.53;;;26.95;;
31692;SDS011;37436;53.230;6.614;2023-02-22T16:11:43;82.60;;;26.23;;
31692;SDS011;37436;53.230;6.614;2023-02-22T16:14:28;80.00;;;25.92;;
31692;SDS011;37436;53.230;6.614;2023-02-22T16:20:31;72.93;;;23.30;;
31692;SDS011;37436;53.230;6.614;2023-02-22T16:26:26;81.00;;;24.05;;
31692;SDS011;37436;53.230;6.614;2023-02-22T16:32:42;81.75;;;25.30;;
31692;SDS011;37436;53.230;6.614;2023-02-22T16:35:49;77.32;;;25.35;;
31692;SDS011;37436;53.230;6.614;2023-02-22T16:42:06;72.75;;;22.92;;
31692;SDS011;37436;53.230;6.614;2023-02-22T16:51:03;80.28;;;25.15;;
31692;SDS011;37436;53.230;6.614;2023-02-22T16:55:56;72.90;;;23.98;;
31692;SDS011;37436;53.230;6.614;2023-02-22T16:58:47;80.20;;;25.48;;
31692;SDS011;37436;53.230;6.614;2023-02-22T17:02:14;78.00;;;22.52;;
31692;SDS011;37436;53.230;6.614;2023-02-22T17:04:45;76.28;;;23.10;;
31692;SDS011;37436;53.230;6.614;2023-02-22T17:07:21;66.82;;;24.40;;
31692;SDS011;37436;53.230;6.614;2023-02-22T17:10:16;73.63;;;23.75;;
31692;SDS011;37436;53.230;6.614;2023-02-22T17:13:08;79.55;;;25.05;;
31692;SDS011;37436;53.230;6.614;2023-02-22T17:18:48;80.70;;;23.60;;
31692;SDS011;37436;53.230;6.614;2023-02-22T17:21:26;92.07;;;25.42;;
31692;SDS011;37436;53.230;6.614;2023-02-22T17:26:41;83.45;;;26.02;;
31692;SDS011;37436;53.230;6.614;2023-02-22T17:29:13;87.25;;;26.73;;
31692;SDS011;37436;53.230;6.614;2023-02-22T17:31:45;78.57;;;25.00;;
31692;SDS011;37436;53.230;6.614;2023-02-22T17:34:30;81.88;;;26.90;;
31692;SDS011;37436;53.230;6.614;2023-02-22T17:36:56;73.57;;;24.63;;
31692;SDS011;37436;53.230;6.614;2023-02-22T17:39:26;77.72;;;25.50;;
31692;SDS011;37436;53.230;6.614;2023-02-22T17:41:52;80.25;;;24.42;;
31692;SDS011;37436;53.230;6.614;2023-02-22T17:44:24;72.13;;;24.95;;
31692;SDS011;37436;53.230;6.614;2023-02-22T17:46:56;70.82;;;22.92;;
31692;SDS011;37436;53.230;6.614;2023-02-22T17:52:25;75.70;;;24.45;;
31692;SDS011;37436;53.230;6.614;2023-02-22T17:55:03;75.53;;;24.08;;
31692;SDS011;37436;53.230;6.614;2023-02-22T18:10:02;70.97;;;24.13;;
31692;SDS011;37436;53.230;6.614;2023-02-22T18:12:49;75.85;;;25.02;;
31692;SDS011;37436;53.230;6.614;2023-02-22T18:34:35;78.93;;;24.02;;
31692;SDS011;37436;53.230;6.614;2023-02-22T18:37:26;76.03;;;24.25;;
31692;SDS011;37436;53.230;6.614;2023-02-22T18:40:24;78.22;;;24.35;;
31692;SDS011;37436;53.230;6.614;2023-02-22T18:46:32;68.22;;;24.75;;
31692;SDS011;37436;53.230;6.614;2023-02-22T18:49:03;65.78;;;23.73;;
31692;SDS011;37436;53.230;6.614;2023-02-22T18:51:32;70.95;;;24.88;;
31692;SDS011;37436;53.230;6.614;2023-02-22T18:54:10;76.57;;;27.05;;
31692;SDS011;37436;53.230;6.614;2023-02-22T18:59:30;76.93;;;24.27;;
31692;SDS011;37436;53.230;6.614;2023-02-22T19:02:05;78.10;;;23.50;;
31692;SDS011;37436;53.230;6.614;2023-02-22T19:05:19;67.28;;;23.63;;
31692;SDS011;37436;53.230;6.614;2023-02-22T19:08:25;100.93;;;35.55;;
31692;SDS011;37436;53.230;6.614;2023-02-22T19:11:17;117.15;;;45.10;;
31692;SDS011;37436;53.230;6.614;2023-02-22T19:20:13;69.75;;;22.85;;
31692;SDS011;37436;53.230;6.614;2023-02-22T19:22:49;75.50;;;27.38;;
31692;SDS011;37436;53.230;6.614;2023-02-22T19:25:22;74.95;;;26.15;;
31692;SDS011;37436;53.230;6.614;2023-02-22T19:27:48;68.38;;;25.00;;
31692;SDS011;37436;53.230;6.614;2023-02-22T19:30:15;84.60;;;25.52;;
31692;SDS011;37436;53.230;6.614;2023-02-22T19:32:49;70.50;;;25.10;;
31692;SDS011;37436;53.230;6.614;2023-02-22T19:38:30;70.07;;;23.65;;
31692;SDS011;37436;53.230;6.614;2023-02-22T19:41:04;71.10;;;25.38;;
31692;SDS011;37436;53.230;6.614;2023-02-22T19:43:41;76.10;;;24.73;;
31692;SDS011;37436;53.230;6.614;2023-02-22T19:46:16;80.57;;;27.92;;
31692;SDS011;37436;53.230;6.614;2023-02-22T19:49:06;75.45;;;25.67;;
31692;SDS011;37436;53.230;6.614;2023-02-22T19:51:58;78.28;;;26.90;;
31692;SDS011;37436;53.230;6.614;2023-02-22T19:54:36;71.10;;;25.63;;
31692;SDS011;37436;53.230;6.614;2023-02-22T19:57:02;78.18;;;26.15;;
31692;SDS011;37436;53.230;6.614;2023-02-22T19:59:38;75.30;;;25.65;;
31692;SDS011;37436;53.230;6.614;2023-02-22T20:02:24;77.18;;;25.83;;
31692;SDS011;37436;53.230;6.614;2023-02-22T20:05:00;91.10;;;26.93;;
31692;SDS011;37436;53.230;6.614;2023-02-22T20:07:29;84.22;;;25.85;;
31692;SDS011;37436;53.230;6.614;2023-02-22T20:10:13;80.00;;;26.48;;
31692;SDS011;37436;53.230;6.614;2023-02-22T20:12:39;68.68;;;25.05;;
31692;SDS011;37436;53.230;6.614;2023-02-22T20:15:35;84.17;;;27.50;;
31692;SDS011;37436;53.230;6.614;2023-02-22T20:18:04;99.25;;;29.13;;
31692;SDS011;37436;53.230;6.614;2023-02-22T20:20:41;85.85;;;28.92;;
31692;SDS011;37436;53.230;6.614;2023-02-22T20:23:15;92.47;;;26.48;;
31692;SDS011;37436;53.230;6.614;2023-02-22T20:31:56;82.73;;;26.33;;
31692;SDS011;37436;53.230;6.614;2023-02-22T20:34:34;82.18;;;27.60;;
31692;SDS011;37436;53.230;6.614;2023-02-22T20:37:03;91.03;;;29.23;;
31692;SDS011;37436;53.230;6.614;2023-02-22T20:43:04;84.75;;;25.95;;
31692;SDS011;37436;53.230;6.614;2023-02-22T20:49:18;89.38;;;26.08;;
31692;SDS011;37436;53.230;6.614;2023-02-22T20:52:01;82.93;;;26.50;;
31692;SDS011;37436;53.230;6.614;2023-02-22T21:01:01;79.18;;;25.00;;
31692;SDS011;37436;53.230;6.614;2023-02-22T21:04:09;80.38;;;25.20;;
31692;SDS011;37436;53.230;6.614;2023-02-22T21:06:38;79.32;;;26.17;;
31692;SDS011;37436;53.230;6.614;2023-02-22T21:09:09;59.50;;;18.75;;
31692;SDS011;37436;53.230;6.614;2023-02-22T21:11:40;99.32;;;27.85;;
31692;SDS011;37436;53.230;6.614;2023-02-22T21:14:16;80.43;;;25.42;;
31692;SDS011;37436;53.230;6.614;2023-02-22T21:20:00;88.97;;;28.13;;